KAIB

Hopkins Field Airport

Nucla, Colorado, USA
METAR KAIB 201235Z AUTO 17005KT 10SM BKN060 OVC085 07/M06 A2988 RMK AO2
Observed Flight Rules
Jan-20 @ 12:35 UTC (35 minutes ago) Visual Flight Rules
Wind Visibility Clouds
170° at 5 knots 10 miles
  • Broken at 6,000' AGL
  • Overcast at 8,500' AGL
Temperatures Readings
Current 7°C / 45°F
Dewpoint -6°C / 21°F
Humidity 39%
Altimeter 29.88" Hg
Pressure 1012 hPa
Elevation 1811
METAR KAIB 201235Z AUTO 17005KT 10SM BKN060 OVC085 07/M06 A2988 RMK AO2
Observed Flight Rules
Jan-20 @ 12:35 UTC
(35 minutes ago)
VFR
Wind Visibility
170° at 5 knots 10 miles
Clouds
  • Broken at 6,000' AGL
  • Overcast at 8,500' AGL
Temperature Dewpoint
7°C / 45°F -6°C / 21°F
Humidity Altimeter Pressure
39% 29.88" Hg 1012 hPa